Time;durP1;ratioP1;P1;durP2;ratioP2;P2;SDS_P1;SDS_P2;PMS_P1;PMS_P2;Temp;Humidity;BMP_temperature;BMP_pressure;BME280_temperature;BME280_humidity;BME280_pressure;Samples;Min_cycle;Max_cycle;Signal;HPM_P1;HPM_P2
2022/03/01 00:00:44;;;;;;;;;;;;;;;-0.17;76.45;103019.31;2056008;28;44021;-63
2022/03/01 00:01:46;;;;;;;;;;;;;;;-0.15;76.44;103012.41;2055656;28;34694;-63
2022/03/01 00:02:47;;;;;;;;;;;;;;;-0.19;76.57;103013.06;2055860;28;44522;-63
2022/03/01 00:03:49;;;;;;;;;;;;;;;-0.17;75.92;103018.41;2055369;28;42352;-62
2022/03/01 00:04:52;;;;;;;;;;;;;;;-0.14;75.91;103006.34;2056087;28;46352;-63
2022/03/01 00:05:56;;;;;;;;;;;;;;;-0.13;75.66;103009.84;2055324;28;23656;-63
2022/03/01 00:06:58;;;;;;;;;;;;;;;-0.13;74.95;103010.75;2055210;28;45752;-63
2022/03/01 00:08:02;;;;;;;;;;;;;;;-0.12;75.28;103009.94;2056119;28;33213;-63
2022/03/01 00:09:04;;;;;;;;;;;;;;;-0.11;75.13;103006.47;2055396;28;46971;-63
2022/03/01 00:10:06;;;;;;;;;;;;;;;-0.09;74.96;103012.75;2055296;28;46315;-63
2022/03/01 00:11:08;;;;;;;;;;;;;;;-0.12;75.61;103007.31;2055748;28;43058;-63
2022/03/01 00:12:09;;;;;;;;;;;;;;;-0.08;75.04;103009.28;2055542;28;45281;-63
2022/03/01 00:13:11;;;;;;;;;;;;;;;-0.07;74.92;103010.19;2056731;28;20774;-63
2022/03/01 00:14:13;;;;;;;;;;;;;;;-0.08;75.04;103006.66;2055724;28;38355;-63
2022/03/01 00:15:14;;;;;;;;;;;;;;;-0.08;74.26;103006.66;2055675;28;45106;-63
2022/03/01 00:16:17;;;;;;;;;;;;;;;-0.05;74.40;103003.28;2056784;28;19927;-63
2022/03/01 00:17:19;;;;;;;;;;;;;;;-0.05;73.84;103006.81;2056296;28;44252;-63
2022/03/01 00:18:20;;;;;;;;;;;;;;;-0.04;74.25;103015.63;2055753;28;45388;-63
2022/03/01 00:19:22;;;;;;;;;;;;;;;-0.06;74.26;103005.00;2056259;28;39003;-63
2022/03/01 00:20:24;;;;;;;;;;;;;;;-0.03;73.71;103002.53;2055797;28;42960;-63
2022/03/01 00:21:26;;;;;;;;;;;;;;;-0.02;73.65;103004.38;2055742;28;44451;-63
2022/03/01 00:22:28;;;;;;;;;;;;;;;-0.04;73.65;103008.63;2056098;28;19934;-63
2022/03/01 00:23:30;;;;;;;;;;;;;;;-0.03;72.86;103013.06;2055200;28;45550;-63
2022/03/01 00:24:31;;;;;;;;;;;;;;;0.02;72.97;103002.81;2055167;28;43051;-63
2022/03/01 00:25:33;;;;;;;;;;;;;;;0.01;73.36;103008.88;2055862;28;45775;-63
2022/03/01 00:26:34;;;;;;;;;;;;;;;-0.01;72.79;103007.91;2055723;28;46313;-63
2022/03/01 00:27:36;;;;;;;;;;;;;;;0.02;72.63;103015.97;2056814;28;20655;-63
2022/03/01 00:28:37;;;;;;;;;;;;;;;0.01;72.58;103008.88;2055874;28;40045;-63
2022/03/01 00:29:39;;;;;;;;;;;;;;;0.02;71.92;103009.78;2056101;28;43184;-63
2022/03/01 00:30:40;;;;;;;;;;;;;;;-0.01;72.63;103013.16;2055442;28;46884;-63
2022/03/01 00:31:42;;;;;;;;;;;;;;;-0.05;73.24;103009.47;2055850;28;39121;-63
2022/03/01 00:32:43;;;;;;;;;;;;;;;-0.05;73.05;103014.72;2055342;28;44436;-63
2022/03/01 00:33:45;;;;;;;;;;;;;;;-0.04;72.14;103005.09;2055773;28;46579;-63
2022/03/01 00:34:46;;;;;;;;;;;;;;;-0.04;72.62;103007.72;2055724;28;44072;-63
2022/03/01 00:35:48;;;;;;;;;;;;;;;-0.06;72.21;103002.38;2055435;28;44460;-63
2022/03/01 00:36:49;;;;;;;;;;;;;;;-0.09;71.78;102999.59;2055929;28;35913;-63
2022/03/01 00:37:51;;;;;;;;;;;;;;;-0.10;72.42;102996.88;2056249;28;43975;-63
2022/03/01 00:38:53;;;;;;;;;;;;;;;-0.13;72.98;102994.06;2055266;28;46744;-63
2022/03/01 00:39:54;;;;;;;;;;;;;;;-0.07;71.94;102991.75;2055641;28;43589;-63
2022/03/01 00:40:56;;;;;;;;;;;;;;;-0.03;71.66;102985.84;2055645;28;45326;-63
2022/03/01 00:41:58;;;;;;;;;;;;;;;0.01;71.39;102989.56;2056477;28;20009;-63
2022/03/01 00:43:00;;;;;;;;;;;;;;;0.05;70.97;102987.16;2055392;28;44911;-63
2022/03/01 00:44:01;;;;;;;;;;;;;;;0.00;71.19;102986.03;2055829;28;44294;-63
2022/03/01 00:45:04;;;;;;;;;;;;;;;0.01;71.37;102992.19;2056111;28;19938;-63
2022/03/01 00:46:05;;;;;;;;;;;;;;;-0.01;71.71;102979.81;2055911;28;27250;-63
2022/03/01 00:47:07;;;;;;;;;;;;;;;0.04;70.83;102981.81;2055600;28;44413;-63
2022/03/01 00:48:09;;;;;;;;;;;;;;;0.01;71.00;102985.19;2055504;28;41654;-63
2022/03/01 00:49:10;;;;;;;;;;;;;;;0.06;69.64;102978.44;2055335;28;45085;-63
2022/03/01 00:50:12;;;;;;;;;;;;;;;0.09;70.39;102986.50;2055988;28;45899;-63
2022/03/01 00:51:13;;;;;;;;;;;;;;;0.05;70.62;102984.50;2055332;28;44955;-63
2022/03/01 00:52:15;;;;;;;;;;;;;;;0.10;70.01;102980.41;2054943;28;45404;-63
2022/03/01 00:53:17;;;;;;;;;;;;;;;0.07;70.28;102976.69;2055757;28;45248;-63
2022/03/01 00:54:18;;;;;;;;;;;;;;;0.04;69.92;102974.81;2055307;28;45480;-63
2022/03/01 00:55:25;;;;;;;;;;;;;;;0.00;70.84;102986.03;2056182;28;19938;-63
2022/03/01 00:56:26;;;;;;;;;;;;;;;0.02;70.04;102980.81;2055609;28;36494;-63
2022/03/01 00:57:28;;;;;;;;;;;;;;;0.07;69.68;102980.25;2055397;28;44988;-63
2022/03/01 00:58:31;;;;;;;;;;;;;;;0.07;70.11;102981.97;2055424;28;44229;-63
2022/03/01 00:59:32;;;;;;;;;;;;;;;0.06;69.61;102974.91;2056257;28;44128;-63
2022/03/01 01:00:34;;;;;;;;;;;;;;;0.02;69.99;102978.16;2056183;28;19930;-63
2022/03/01 01:01:36;;;;;;;;;;;;;;;0.02;70.44;102983.44;2056635;28;20017;-63
2022/03/01 01:02:38;;;;;;;;;;;;;;;-0.02;70.26;102978.03;2055229;28;45782;-63
2022/03/01 01:03:42;;;;;;;;;;;;;;;0.00;69.24;102978.13;2055647;28;44197;-63
2022/03/01 01:04:44;;;;;;;;;;;;;;;-0.04;70.09;102977.03;2055725;28;19922;-63
2022/03/01 01:05:46;;;;;;;;;;;;;;;0.01;70.22;102977.28;2055486;28;44077;-63
2022/03/01 01:06:52;;;;;;;;;;;;;;;0.04;69.17;102976.56;2055123;28;42973;-63
2022/03/01 01:07:55;;;;;;;;;;;;;;;0.02;69.63;102976.47;2055905;28;20064;-63
2022/03/01 01:08:57;;;;;;;;;;;;;;;0.02;69.43;102970.28;2055386;28;44974;-63
2022/03/01 01:09:58;;;;;;;;;;;;;;;0.07;69.60;102977.63;2055491;28;32380;-63
2022/03/01 01:11:00;;;;;;;;;;;;;;;0.08;69.16;102973.25;2054701;28;44902;-63
2022/03/01 01:12:01;;;;;;;;;;;;;;;0.06;68.95;102974.91;2055092;28;42729;-63
2022/03/01 01:13:03;;;;;;;;;;;;;;;0.06;69.03;102964.38;2055234;28;45517;-63
2022/03/01 01:14:04;;;;;;;;;;;;;;;0.08;68.74;102957.44;2055393;28;45631;-63
2022/03/01 01:15:07;;;;;;;;;;;;;;;0.06;69.06;102967.91;2054636;28;45899;-63
2022/03/01 01:16:09;;;;;;;;;;;;;;;0.07;68.88;102977.63;2055250;28;46437;-63
2022/03/01 01:17:10;;;;;;;;;;;;;;;0.11;68.81;102969.06;2055244;28;42414;-63
2022/03/01 01:18:15;;;;;;;;;;;;;;;0.15;67.85;102970.13;2056575;28;20911;-63
2022/03/01 01:19:17;;;;;;;;;;;;;;;0.08;68.61;102968.88;2055253;28;43849;-63
2022/03/01 01:20:21;;;;;;;;;;;;;;;0.11;68.59;102968.16;2056646;28;20049;-63
2022/03/01 01:21:23;;;;;;;;;;;;;;;0.20;68.49;102963.38;2055133;28;45351;-63
2022/03/01 01:22:39;;;;;;;;;;;;;;;0.19;68.38;102969.44;2055660;28;44152;-63
2022/03/01 01:23:41;;;;;;;;;;;;;;;0.18;67.90;102965.91;2055487;28;45052;-63
2022/03/01 01:24:44;;;;;;;;;;;;;;;0.14;67.80;102969.22;2055323;28;45138;-62
2022/03/01 01:25:48;;;;;;;;;;;;;;;0.10;68.43;102968.97;2055108;28;44721;-63
2022/03/01 01:26:49;;;;;;;;;;;;;;;0.09;68.31;102972.41;2055360;28;43163;-63
2022/03/01 01:27:54;;;;;;;;;;;;;;;0.09;67.98;102973.34;2055406;28;46091;-63
2022/03/01 01:28:55;;;;;;;;;;;;;;;0.07;68.09;102976.69;2055222;28;45567;-63
2022/03/01 01:29:57;;;;;;;;;;;;;;;0.09;67.92;102970.72;2054972;28;44403;-63
2022/03/01 01:30:59;;;;;;;;;;;;;;;0.06;68.39;102977.53;2055175;28;43441;-63
2022/03/01 01:32:00;;;;;;;;;;;;;;;0.02;68.72;102973.84;2054920;28;45625;-63
2022/03/01 01:33:02;;;;;;;;;;;;;;;-0.05;69.23;102983.13;2055428;28;44415;-63
2022/03/01 01:34:04;;;;;;;;;;;;;;;-0.05;68.45;102982.22;2055429;28;43955;-63
2022/03/01 01:35:07;;;;;;;;;;;;;;;-0.07;69.33;102981.22;2054760;28;45060;-63
2022/03/01 01:36:08;;;;;;;;;;;;;;;-0.02;68.30;102978.03;2055298;28;43466;-63
2022/03/01 01:37:10;;;;;;;;;;;;;;;-0.06;68.41;102976.03;2054531;28;45527;-63
2022/03/01 01:38:14;;;;;;;;;;;;;;;-0.03;68.38;102973.56;2055454;28;47047;-63
2022/03/01 01:39:15;;;;;;;;;;;;;;;-0.06;68.47;102978.66;2055537;28;43874;-63
2022/03/01 01:40:24;;;;;;;;;;;;;;;-0.07;68.70;102973.31;2055291;28;46247;-63
2022/03/01 01:41:25;;;;;;;;;;;;;;;-0.10;68.45;102976.72;2055074;28;44558;-63
2022/03/01 01:42:27;;;;;;;;;;;;;;;-0.09;68.69;102977.59;2055257;28;45419;-63
2022/03/01 01:43:28;;;;;;;;;;;;;;;-0.13;68.95;102986.16;2055072;28;45975;-63
2022/03/01 01:44:31;;;;;;;;;;;;;;;-0.17;68.62;102987.72;2054964;28;45299;-63
2022/03/01 01:45:33;;;;;;;;;;;;;;;-0.14;68.75;102977.38;2054696;28;37848;-63
2022/03/01 01:46:35;;;;;;;;;;;;;;;-0.13;68.12;102984.44;2054820;28;45070;-63
2022/03/01 01:47:37;;;;;;;;;;;;;;;-0.18;69.42;102979.75;2055987;28;19919;-63
2022/03/01 01:48:38;;;;;;;;;;;;;;;-0.18;69.05;102979.75;2055374;28;35790;-63
2022/03/01 01:49:40;;;;;;;;;;;;;;;-0.20;68.95;102980.59;2055152;28;44176;-63
2022/03/01 01:50:42;;;;;;;;;;;;;;;-0.21;69.61;102975.22;2055184;28;45243;-63
2022/03/01 01:51:44;;;;;;;;;;;;;;;-0.25;69.16;102973.22;2055294;28;43486;-63
2022/03/01 01:52:47;;;;;;;;;;;;;;;-0.27;69.38;102980.16;2054893;28;45339;-63
2022/03/01 01:53:49;;;;;;;;;;;;;;;-0.24;69.07;102975.06;2055160;28;42778;-63
2022/03/01 01:54:51;;;;;;;;;;;;;;;-0.29;69.30;102976.53;2055133;28;43920;-63
2022/03/01 01:55:53;;;;;;;;;;;;;;;-0.27;68.94;102975.81;2055200;28;43446;-63
2022/03/01 01:56:58;;;;;;;;;;;;;;;-0.26;68.64;102972.34;2056297;28;19934;-63
2022/03/01 01:58:00;;;;;;;;;;;;;;;-0.31;69.54;102973.81;2054621;28;43995;-63
2022/03/01 01:59:02;;;;;;;;;;;;;;;-0.30;69.66;102980.91;2056155;28;20879;-63
2022/03/01 02:00:05;;;;;;;;;;;;;;;-0.35;69.62;102976.22;2054529;28;44915;-63
2022/03/01 02:01:13;;;;;;;;;;;;;;;-0.37;69.98;102975.22;2055953;28;20750;-63
2022/03/01 02:02:17;;;;;;;;;;;;;;;-0.34;69.62;102970.09;2055025;28;46417;-63
2022/03/01 02:03:20;;;;;;;;;;;;;;;-0.28;69.45;102973.09;2054810;28;45549;-63
2022/03/01 02:04:22;;;;;;;;;;;;;;;-0.32;69.54;102976.34;2056162;28;19930;-62
2022/03/01 02:05:26;;;;;;;;;;;;;;;-0.34;69.38;102970.09;2055333;28;38348;-63
2022/03/01 02:06:30;;;;;;;;;;;;;;;-0.36;69.52;102969.13;2055676;28;39896;-63
2022/03/01 02:07:31;;;;;;;;;;;;;;;-0.37;69.62;102968.22;2055274;28;45267;-63
2022/03/01 02:08:33;;;;;;;;;;;;;;;-0.43;69.91;102974.06;2055140;28;44669;-63
2022/03/01 02:09:37;;;;;;;;;;;;;;;-0.43;69.48;102974.06;2055691;28;42888;-63
2022/03/01 02:10:39;;;;;;;;;;;;;;;-0.41;69.41;102976.78;2054551;28;47173;-63
2022/03/01 02:11:40;;;;;;;;;;;;;;;-0.44;70.05;102974.88;2054975;28;45329;-62
2022/03/01 02:12:44;;;;;;;;;;;;;;;-0.47;70.01;102976.44;2054760;28;46377;-63
2022/03/01 02:13:46;;;;;;;;;;;;;;;-0.37;69.76;102969.97;2055266;28;40991;-63
2022/03/01 02:14:48;;;;;;;;;;;;;;;-0.37;69.41;102977.84;2054959;28;45732;-63
2022/03/01 02:15:51;;;;;;;;;;;;;;;-0.43;69.80;102971.44;2054836;28;45779;-63
2022/03/01 02:16:53;;;;;;;;;;;;;;;-0.45;70.12;102967.81;2054971;28;45879;-63
2022/03/01 02:17:55;;;;;;;;;;;;;;;-0.45;69.79;102980.03;2055203;28;39717;-63
2022/03/01 02:18:59;;;;;;;;;;;;;;;-0.37;69.67;102977.84;2054986;28;43355;-62
2022/03/01 02:20:06;;;;;;;;;;;;;;;-0.41;70.32;102971.53;2055228;28;45692;-63
2022/03/01 02:21:07;;;;;;;;;;;;;;;-0.41;70.25;102979.41;2055198;28;44781;-63
2022/03/01 02:22:10;;;;;;;;;;;;;;;-0.46;70.11;102978.25;2054835;28;45615;-63
2022/03/01 02:23:13;;;;;;;;;;;;;;;-0.47;70.06;102972.06;2056232;28;45519;-63
2022/03/01 02:24:17;;;;;;;;;;;;;;;-0.47;70.54;102973.78;2056274;28;45978;-63
2022/03/01 02:25:19;;;;;;;;;;;;;;;-0.53;70.10;102982.25;2057247;28;19981;-63
2022/03/01 02:26:20;;;;;;;;;;;;;;;-0.56;70.59;102970.66;2056501;28;44682;-63
2022/03/01 02:27:22;;;;;;;;;;;;;;;-0.55;70.88;102978.66;2056644;28;44545;-62
2022/03/01 02:28:23;;;;;;;;;;;;;;;-0.52;70.75;102972.63;2063772;28;47538;-63
2022/03/01 02:29:26;;;;;;;;;;;;;;;-0.52;70.05;102965.66;2063821;28;43051;-63
2022/03/01 02:30:27;;;;;;;;;;;;;;;-0.55;70.26;102970.75;2056555;28;45310;-63
2022/03/01 02:31:29;;;;;;;;;;;;;;;-0.52;70.34;102973.56;2056359;28;46404;-62
2022/03/01 02:32:31;;;;;;;;;;;;;;;-0.55;70.92;102969.84;2055947;28;42279;-63
2022/03/01 02:33:32;;;;;;;;;;;;;;;-0.60;70.39;102973.09;2056170;28;45369;-63
2022/03/01 02:34:35;;;;;;;;;;;;;;;-0.60;71.09;102965.22;2056037;28;45862;-63
2022/03/01 02:35:36;;;;;;;;;;;;;;;-0.59;70.79;102966.16;2056165;28;45441;-63
2022/03/01 02:36:38;;;;;;;;;;;;;;;-0.61;71.32;102970.38;2056332;28;46750;-63
2022/03/01 02:37:40;;;;;;;;;;;;;;;-0.55;70.52;102962.84;2056225;28;42998;-63
2022/03/01 02:38:42;;;;;;;;;;;;;;;-0.56;70.83;102971.56;2056261;28;43170;-63
2022/03/01 02:39:43;;;;;;;;;;;;;;;-0.58;71.14;102965.31;2056461;28;46051;-63
2022/03/01 02:40:45;;;;;;;;;;;;;;;-0.60;70.67;102959.97;2055947;28;44395;-63
2022/03/01 02:41:47;;;;;;;;;;;;;;;-0.58;70.66;102958.31;2056409;28;46358;-63
2022/03/01 02:42:49;;;;;;;;;;;;;;;-0.62;71.39;102955.44;2056441;28;42496;-63
2022/03/01 02:43:50;;;;;;;;;;;;;;;-0.65;71.63;102958.78;2055810;28;43164;-63
2022/03/01 02:44:52;;;;;;;;;;;;;;;-0.64;71.22;102967.63;2056659;28;38175;-63
2022/03/01 02:45:56;;;;;;;;;;;;;;;-0.64;71.11;102957.09;2055893;28;44231;-63
2022/03/01 02:46:58;;;;;;;;;;;;;;;-0.65;71.86;102961.41;2056217;28;45038;-63
2022/03/01 02:47:59;;;;;;;;;;;;;;;-0.65;71.66;102950.00;2055669;28;44611;-63
2022/03/01 02:49:02;;;;;;;;;;;;;;;-0.65;71.48;102950.91;2056651;28;41024;-63
2022/03/01 02:50:05;;;;;;;;;;;;;;;-0.66;71.64;102953.47;2056942;28;24182;-63
2022/03/01 02:51:07;;;;;;;;;;;;;;;-0.68;71.34;102945.50;2057013;28;43651;-63
2022/03/01 02:52:11;;;;;;;;;;;;;;;-0.72;71.80;102947.84;2055724;28;42011;-63
2022/03/01 02:53:12;;;;;;;;;;;;;;;-0.69;71.28;102956.81;2056639;28;45787;-63
2022/03/01 02:54:14;;;;;;;;;;;;;;;-0.72;71.84;102955.75;2056368;28;45416;-64
2022/03/01 02:55:16;;;;;;;;;;;;;;;-0.75;72.25;102959.13;2056194;28;46972;-63
2022/03/01 02:56:17;;;;;;;;;;;;;;;-0.71;71.72;102960.19;2056590;28;44053;-63
2022/03/01 02:57:19;;;;;;;;;;;;;;;-0.73;72.28;102961.84;2056020;28;44143;-63
2022/03/01 02:58:20;;;;;;;;;;;;;;;-0.72;72.51;102958.38;2056090;28;43569;-64
2022/03/01 02:59:22;;;;;;;;;;;;;;;-0.72;72.24;102955.75;2056318;28;43973;-63
2022/03/01 03:00:24;;;;;;;;;;;;;;;-0.69;72.04;102953.28;2056176;28;46073;-63
2022/03/01 03:01:26;;;;;;;;;;;;;;;-0.71;72.22;102954.94;2055741;28;44748;-63
2022/03/01 03:02:28;;;;;;;;;;;;;;;-0.77;72.20;102958.13;2057288;28;19930;-63
2022/03/01 03:03:30;;;;;;;;;;;;;;;-0.79;72.30;102957.13;2056042;28;44035;-63
2022/03/01 03:04:34;;;;;;;;;;;;;;;-0.80;72.20;102958.84;2057156;28;19923;-63
2022/03/01 03:05:36;;;;;;;;;;;;;;;-0.79;72.58;102952.78;2056461;28;20058;-63
2022/03/01 03:06:37;;;;;;;;;;;;;;;-0.75;72.00;102959.13;2055898;28;44305;-63
2022/03/01 03:07:39;;;;;;;;;;;;;;;-0.77;72.77;102955.50;2055883;28;44400;-62
2022/03/01 03:08:40;;;;;;;;;;;;;;;-0.78;72.65;102953.69;2056659;28;39365;-62
2022/03/01 03:09:42;;;;;;;;;;;;;;;-0.77;72.93;102952.88;2056173;28;43582;-62
2022/03/01 03:10:43;;;;;;;;;;;;;;;-0.81;72.98;102951.81;2056255;28;44340;-63
2022/03/01 03:11:45;;;;;;;;;;;;;;;-0.79;72.26;102949.22;2055748;28;44062;-62
2022/03/01 03:12:48;;;;;;;;;;;;;;;-0.84;72.47;102946.34;2057273;28;20001;-63
2022/03/01 03:13:50;;;;;;;;;;;;;;;-0.83;73.25;102944.63;2055740;28;40136;-62
2022/03/01 03:14:52;;;;;;;;;;;;;;;-0.78;72.62;102944.06;2056148;28;41067;-62
2022/03/01 03:15:53;;;;;;;;;;;;;;;-0.80;72.51;102945.69;2055239;28;45377;-62
2022/03/01 03:16:56;;;;;;;;;;;;;;;-0.77;72.45;102945.88;2056670;28;19926;-63
2022/03/01 03:17:59;;;;;;;;;;;;;;;-0.72;72.43;102937.34;2055699;28;44232;-62
2022/03/01 03:19:00;;;;;;;;;;;;;;;-0.74;72.74;102936.34;2056707;28;20061;-63
2022/03/01 03:20:04;;;;;;;;;;;;;;;-0.74;72.90;102934.63;2055777;28;42706;-62
2022/03/01 03:21:06;;;;;;;;;;;;;;;-0.74;72.38;102944.25;2055713;28;46043;-63
2022/03/01 03:22:07;;;;;;;;;;;;;;;-0.77;72.49;102947.63;2056101;28;41466;-62
2022/03/01 03:23:09;;;;;;;;;;;;;;;-0.81;72.79;102933.38;2056355;28;45200;-63
2022/03/01 03:24:11;;;;;;;;;;;;;;;-0.77;73.17;102929.22;2055737;28;44464;-63
2022/03/01 03:25:13;;;;;;;;;;;;;;;-0.81;72.92;102930.75;2056420;28;44005;-63
2022/03/01 03:26:15;;;;;;;;;;;;;;;-0.79;72.85;102931.75;2056596;28;19934;-63
2022/03/01 03:27:17;;;;;;;;;;;;;;;-0.79;72.65;102926.47;2056458;28;43568;-63
2022/03/01 03:28:18;;;;;;;;;;;;;;;-0.80;72.48;102934.28;2056612;28;25848;-63
2022/03/01 03:29:21;;;;;;;;;;;;;;;-0.81;73.15;102927.19;2056954;28;46528;-63
2022/03/01 03:30:23;;;;;;;;;;;;;;;-0.83;73.26;102921.84;2055675;28;42741;-62
2022/03/01 03:31:25;;;;;;;;;;;;;;;-0.84;73.39;102933.22;2056006;28;40074;-62
2022/03/01 03:32:27;;;;;;;;;;;;;;;-0.83;73.20;102932.38;2055761;28;46058;-63
2022/03/01 03:33:29;;;;;;;;;;;;;;;-0.82;73.11;102935.94;2055865;28;45614;-62
2022/03/01 03:34:33;;;;;;;;;;;;;;;-0.80;73.58;102935.19;2056008;28;45076;-63
2022/03/01 03:35:37;;;;;;;;;;;;;;;-0.84;73.24;102927.94;2057657;28;20005;-63
2022/03/01 03:36:40;;;;;;;;;;;;;;;-0.83;73.78;102935.00;2056035;28;38152;-62
2022/03/01 03:37:42;;;;;;;;;;;;;;;-0.87;73.72;102924.25;2055797;28;47609;-63
2022/03/01 03:38:43;;;;;;;;;;;;;;;-0.85;73.46;102925.22;2056879;28;19931;-62
2022/03/01 03:39:45;;;;;;;;;;;;;;;-0.86;73.41;102923.41;2055943;28;47432;-63
2022/03/01 03:40:46;;;;;;;;;;;;;;;-0.84;73.41;102930.59;2055777;28;45709;-63
2022/03/01 03:41:48;;;;;;;;;;;;;;;-0.85;73.93;102923.50;2055847;28;44422;-62
2022/03/01 03:42:52;;;;;;;;;;;;;;;-0.86;73.63;102916.44;2055860;28;46434;-63
2022/03/01 03:43:54;;;;;;;;;;;;;;;-0.89;73.41;102925.88;2056420;28;37805;-63
2022/03/01 03:44:55;;;;;;;;;;;;;;;-0.91;74.49;102923.16;2055550;28;44652;-62
2022/03/01 03:45:57;;;;;;;;;;;;;;;-0.90;74.07;102919.69;2055930;28;45754;-63
2022/03/01 03:47:01;;;;;;;;;;;;;;;-0.87;74.04;102917.25;2055712;28;44378;-63
2022/03/01 03:48:03;;;;;;;;;;;;;;;-0.85;74.03;102915.59;2063515;28;44703;-62
2022/03/01 03:49:04;;;;;;;;;;;;;;;-0.85;73.58;102915.59;2063058;28;43063;-63
2022/03/01 03:50:09;;;;;;;;;;;;;;;-0.86;73.74;102923.41;2055870;28;45723;-62
2022/03/01 03:51:11;;;;;;;;;;;;;;;-0.89;74.35;102924.16;2055636;28;44631;-63
2022/03/01 03:52:12;;;;;;;;;;;;;;;-0.89;74.74;102918.91;2056474;28;36194;-63
2022/03/01 03:53:14;;;;;;;;;;;;;;;-0.91;74.59;102915.28;2055662;28;46257;-62
2022/03/01 03:54:15;;;;;;;;;;;;;;;-0.90;74.14;102924.06;2056169;28;42711;-63
2022/03/01 03:55:18;;;;;;;;;;;;;;;-0.90;74.81;102917.06;2055527;28;45491;-63
2022/03/01 03:56:19;;;;;;;;;;;;;;;-0.88;74.82;102925.97;2056029;28;44444;-62
2022/03/01 03:57:21;;;;;;;;;;;;;;;-0.87;74.92;102919.88;2056239;28;39046;-63
2022/03/01 03:58:22;;;;;;;;;;;;;;;-0.87;74.93;102914.63;2056226;28;43411;-63
2022/03/01 03:59:24;;;;;;;;;;;;;;;-0.84;74.85;102916.53;2055908;28;45875;-63
2022/03/01 04:00:26;;;;;;;;;;;;;;;-0.83;74.19;102915.69;2055300;28;45392;-63
2022/03/01 04:01:30;;;;;;;;;;;;;;;-0.79;74.02;102913.34;2056630;28;19927;-62
2022/03/01 04:02:32;;;;;;;;;;;;;;;-0.75;74.43;102918.75;2056136;28;43086;-63
2022/03/01 04:03:35;;;;;;;;;;;;;;;-0.77;74.18;102916.06;2056689;28;20064;-63
2022/03/01 04:04:36;;;;;;;;;;;;;;;-0.80;74.34;102916.78;2056578;28;28964;-63
2022/03/01 04:05:38;;;;;;;;;;;;;;;-0.80;74.20;102918.50;2055845;28;41202;-63
2022/03/01 04:06:39;;;;;;;;;;;;;;;-0.80;75.01;102923.78;2055757;28;46133;-63
2022/03/01 04:07:42;;;;;;;;;;;;;;;-0.78;74.32;102923.03;2055244;28;42898;-63
2022/03/01 04:08:44;;;;;;;;;;;;;;;-0.80;74.46;102916.78;2055889;28;45590;-63
2022/03/01 04:09:47;;;;;;;;;;;;;;;-0.84;74.91;102912.19;2056485;28;20752;-63
2022/03/01 04:10:49;;;;;;;;;;;;;;;-0.81;75.08;102917.63;2055847;28;43646;-63
2022/03/01 04:11:50;;;;;;;;;;;;;;;-0.81;74.34;102917.63;2056445;28;19988;-63
2022/03/01 04:12:52;;;;;;;;;;;;;;;-0.83;74.63;102921.84;2056075;28;45433;-63
2022/03/01 04:13:54;;;;;;;;;;;;;;;-0.85;74.78;102909.44;2055663;28;44390;-63
2022/03/01 04:14:55;;;;;;;;;;;;;;;-0.87;74.77;102917.25;2055839;28;43472;-63
2022/03/01 04:15:59;;;;;;;;;;;;;;;-0.87;75.58;102921.63;2055678;28;35440;-63
2022/03/01 04:17:01;;;;;;;;;;;;;;;-0.89;74.94;102916.25;2055821;28;45259;-63
2022/03/01 04:18:04;;;;;;;;;;;;;;;-0.86;75.37;102913.81;2055747;28;41038;-63
2022/03/01 04:19:06;;;;;;;;;;;;;;;-0.84;75.37;102917.44;2056454;28;45785;-63
2022/03/01 04:20:10;;;;;;;;;;;;;;;-0.86;75.33;102924.34;2055700;28;45442;-63
2022/03/01 04:21:14;;;;;;;;;;;;;;;-0.88;75.39;102930.31;2055898;28;43278;-63
2022/03/01 04:22:15;;;;;;;;;;;;;;;-0.89;75.52;102933.78;2055227;28;45732;-63
2022/03/01 04:23:17;;;;;;;;;;;;;;;-0.91;75.38;102927.53;2056315;28;39331;-63
2022/03/01 04:24:18;;;;;;;;;;;;;;;-0.96;75.69;102930.78;2055474;28;45422;-63
2022/03/01 04:25:20;;;;;;;;;;;;;;;-0.97;75.55;102930.69;2056074;28;42561;-63
2022/03/01 04:26:23;;;;;;;;;;;;;;;-0.96;76.15;102930.78;2056006;28;19934;-63
2022/03/01 04:27:25;;;;;;;;;;;;;;;-1.01;76.01;102931.34;2055639;28;44165;-63
2022/03/01 04:28:27;;;;;;;;;;;;;;;-1.06;76.46;102930.19;2055848;28;44443;-63
2022/03/01 04:29:28;;;;;;;;;;;;;;;-1.04;76.21;102933.78;2055772;28;45533;-63
2022/03/01 04:30:30;;;;;;;;;;;;;;;-1.07;75.76;102939.78;2055181;28;46448;-64
2022/03/01 04:31:31;;;;;;;;;;;;;;;-1.06;76.08;102930.19;2055997;28;42290;-63
2022/03/01 04:32:34;;;;;;;;;;;;;;;-1.09;76.36;102936.19;2055691;28;44329;-63
2022/03/01 04:33:36;;;;;;;;;;;;;;;-1.07;76.86;102945.06;2055151;28;46127;-63
2022/03/01 04:34:41;;;;;;;;;;;;;;;-1.08;76.39;102932.72;2055259;28;44358;-63
2022/03/01 04:35:43;;;;;;;;;;;;;;;-1.08;76.98;102942.34;2055804;28;46483;-63
2022/03/01 04:36:44;;;;;;;;;;;;;;;-1.06;76.57;102933.72;2054786;28;42842;-63
2022/03/01 04:37:48;;;;;;;;;;;;;;;-1.06;76.28;102932.81;2054685;28;44055;-64
2022/03/01 04:38:51;;;;;;;;;;;;;;;-1.00;76.38;102941.06;2055106;28;46065;-63
2022/03/01 04:39:52;;;;;;;;;;;;;;;-1.02;76.29;102937.44;2055613;28;44049;-63
2022/03/01 04:40:55;;;;;;;;;;;;;;;-1.04;76.08;102939.97;2055056;28;46296;-63
2022/03/01 04:41:56;;;;;;;;;;;;;;;-1.03;76.86;102935.63;2055807;28;40026;-61
2022/03/01 04:42:58;;;;;;;;;;;;;;;-1.02;76.55;102933.09;2055398;28;44055;-63
2022/03/01 04:44:00;;;;;;;;;;;;;;;-1.04;76.84;102929.47;2055598;28;46637;-63
2022/03/01 04:45:03;;;;;;;;;;;;;;;-1.00;76.80;102925.28;2054480;28;42690;-63
2022/03/01 04:46:06;;;;;;;;;;;;;;;-1.00;77.08;102920.03;2054968;28;43924;-63
2022/03/01 04:47:07;;;;;;;;;;;;;;;-1.05;76.18;102921.50;2055220;28;44758;-63
2022/03/01 04:48:09;;;;;;;;;;;;;;;-1.06;77.02;102914.41;2055388;28;43794;-63
2022/03/01 04:49:11;;;;;;;;;;;;;;;-1.07;76.64;102915.25;2055667;28;46357;-63
2022/03/01 04:50:13;;;;;;;;;;;;;;;-1.10;76.88;102921.22;2055436;28;42828;-63
2022/03/01 04:51:21;;;;;;;;;;;;;;;-1.09;77.37;102909.91;2054866;28;45793;-63
2022/03/01 04:52:22;;;;;;;;;;;;;;;-1.04;77.34;102918.03;2055686;28;45995;-63
2022/03/01 04:53:24;;;;;;;;;;;;;;;-1.05;77.27;102911.88;2055281;28;44215;-63
2022/03/01 04:54:26;;;;;;;;;;;;;;;-1.04;77.22;102910.13;2055619;28;44924;-63
2022/03/01 04:55:27;;;;;;;;;;;;;;;-1.04;77.52;102915.38;2055434;28;43094;-63
2022/03/01 04:56:29;;;;;;;;;;;;;;;-1.04;77.28;102911.06;2055725;28;45829;-63
2022/03/01 04:57:32;;;;;;;;;;;;;;;-1.04;77.35;102915.38;2055275;28;45420;-63
2022/03/01 04:58:34;;;;;;;;;;;;;;;-1.09;77.23;102909.00;2055951;28;37439;-64
2022/03/01 04:59:36;;;;;;;;;;;;;;;-1.11;77.70;102921.13;2054883;28;44335;-64
2022/03/01 05:00:37;;;;;;;;;;;;;;;-1.09;77.93;102906.38;2055430;28;44018;-63
2022/03/01 05:01:39;;;;;;;;;;;;;;;-1.08;77.87;102914.31;2055110;28;44737;-64
2022/03/01 05:02:44;;;;;;;;;;;;;;;-1.08;77.91;102910.78;2056041;28;46272;-64
2022/03/01 05:03:46;;;;;;;;;;;;;;;-1.11;77.70;102916.78;2055895;28;41373;-63
2022/03/01 05:04:48;;;;;;;;;;;;;;;-1.11;77.78;102913.22;2055591;28;43622;-63
2022/03/01 05:05:49;;;;;;;;;;;;;;;-1.09;77.75;102914.25;2055475;28;45705;-63
2022/03/01 05:06:53;;;;;;;;;;;;;;;-1.09;78.23;102909.00;2055481;28;44204;-63
2022/03/01 05:07:55;;;;;;;;;;;;;;;-1.08;78.34;102913.41;2055288;28;46254;-63
2022/03/01 05:08:56;;;;;;;;;;;;;;;-1.10;77.72;102908.06;2055254;28;45420;-63
2022/03/01 05:09:58;;;;;;;;;;;;;;;-1.08;78.01;102910.78;2055543;28;44886;-63
2022/03/01 05:11:01;;;;;;;;;;;;;;;-1.09;77.81;102909.00;2055693;28;43468;-63
2022/03/01 05:12:03;;;;;;;;;;;;;;;-1.09;77.62;102909.00;2055101;28;44448;-63
2022/03/01 05:13:07;;;;;;;;;;;;;;;-1.04;78.03;102910.13;2055010;28;44354;-64
2022/03/01 05:14:08;;;;;;;;;;;;;;;-1.04;77.11;102907.50;2055078;28;44479;-63
2022/03/01 05:15:11;;;;;;;;;;;;;;;-1.03;77.59;102910.22;2055442;28;38715;-64
2022/03/01 05:16:14;;;;;;;;;;;;;;;-1.05;77.26;102913.59;2055115;28;39928;-63
2022/03/01 05:17:15;;;;;;;;;;;;;;;-1.05;77.89;102914.50;2055407;28;45405;-63
2022/03/01 05:18:17;;;;;;;;;;;;;;;-1.06;78.01;102910.06;2054783;28;34174;-64
2022/03/01 05:19:18;;;;;;;;;;;;;;;-1.05;77.97;102918.84;2055604;28;44311;-63
2022/03/01 05:20:21;;;;;;;;;;;;;;;-1.05;77.78;102919.75;2055984;28;25643;-64